Create Tblcommutelog Verified Points Advance Search
| # | Trip ID | Id Commuter | Trip Date | Trip Num | Current Lat | Current Lng | Delta Distance | Current Time | Activity | Activity Confidence | Current Speed | |
|---|---|---|---|---|---|---|---|---|---|---|---|---|
| 72501 | 250602_785264_16653381_1710 | 785264 | (not set) | (not set) | 38.901319301835 | -77.448268907985 | 29.7624 | 2025-06-02 22:31:20.321 | in_vehicle | 100 | 5.6192834854757 | |
| 72502 | 250602_752246_16618423_1805 | 752246 | (not set) | (not set) | 38.889277866803 | -76.913123077905 | 7.0863 | 2025-06-02 22:31:20.809 | in_vehicle | 100 | -0.44703925898772 | |
| 72503 | 250602_783292_16651014_1605 | 783292 | (not set) | (not set) | 38.899731614923 | -77.035441979921 | 10.8396 | 2025-06-02 22:31:22.481 | in_vehicle | 100 | -0.44703925898772 | |
| 72504 | 250602_754088_16646517_1826 | 754088 | (not set) | (not set) | 39.0291456 | -77.103947 | 0.126 | 2025-06-02 22:31:30.401 | still | 100 | -0.44703925898772 | |
| 72505 | 250602_780933_16648605_1712 | 780933 | (not set) | (not set) | 39.315515907381 | -76.641766935818 | 39.069 | 2025-06-02 22:31:31.22 | in_vehicle | 100 | 3.4645542571549 | |
| 72506 | 250602_118321_1036641_1738 | 118321 | (not set) | (not set) | 38.794556133952 | -77.159779352489 | 14.6208 | 2025-06-02 22:31:31.275 | in_vehicle | 100 | 9.977916260606 | |
| 72507 | 250602_770660_16637796_1655 | 770660 | (not set) | (not set) | 39.29836400132 | -76.619972455123 | 41.3758 | 2025-06-02 22:31:32.306 | on_foot | 100 | 0.63479574776257 | |
| 72508 | 250602_785264_16653381_1710 | 785264 | (not set) | (not set) | 38.902152800744 | -77.45032503873 | 29.8873 | 2025-06-02 22:31:33.247 | in_vehicle | 100 | 8.301519039402 | |
| 72509 | 250602_118321_1036641_1738 | 118321 | (not set) | (not set) | 38.793806633526 | -77.162724855699 | 14.788 | 2025-06-02 22:31:43.253 | in_vehicle | 100 | 10.18355431974 | |
| 72510 | 250602_780745_16648422_1703 | 780745 | (not set) | (not set) | 39.089956737052 | -77.557371677556 | 41.9129 | 2025-06-02 22:31:44.479 | in_vehicle | 100 | 0 | |
| 72511 | 250602_753795_16619971_1737 | 753795 | (not set) | (not set) | 39.038979482788 | -77.046137911218 | 12.4052 | 2025-06-02 22:31:45.345 | on_foot | 100 | 0.46045043675736 | |
| 72512 | 250602_785264_16653381_1710 | 785264 | (not set) | (not set) | 38.903248882638 | -77.45302021609 | 30.0511 | 2025-06-02 22:31:46.631 | in_vehicle | 100 | 9.213479127737 | |
| 72513 | 250602_779990_16647676_1750 | 779990 | (not set) | (not set) | 38.861769822579 | -77.06839031885 | 4.1032 | 2025-06-02 22:31:49.002 | in_vehicle | 100 | -0.44703925898772 | |
| 72514 | 250602_764454_16631362_1742 | 764454 | (not set) | (not set) | 38.9810381 | -77.4457689 | 26.7697 | 2025-06-02 22:32:18.561 | still | 33 | 8.2121111876045 | |
| 72515 | 250602_785264_16653381_1710 | 785264 | (not set) | (not set) | 38.910081488144 | -77.470032861037 | 31.0822 | 2025-06-02 22:33:49.45 | in_vehicle | 100 | 6.9648716550287 | |
| 72516 | 250602_779990_16647676_1750 | 779990 | (not set) | (not set) | 38.84205783423 | -77.084754009745 | 6.6768 | 2025-06-02 22:33:50.393 | in_vehicle | 100 | 5.3331783597236 | |
| 72517 | 250602_785264_16653381_1710 | 785264 | (not set) | (not set) | 38.907724013859 | -77.464191860205 | 30.7277 | 2025-06-02 22:32:40.422 | in_vehicle | 100 | 9.7454558459324 | |
| 72518 | 250602_784650_16652626_1755 | 784650 | (not set) | (not set) | 38.804849079564 | -77.06437715198 | 7.443 | 2025-06-02 22:32:43.208 | in_vehicle | 100 | 5.1633034413082 | |
| 72519 | 250602_779990_16647676_1750 | 779990 | (not set) | (not set) | 38.848989860144 | -77.077510211233 | 6.0118 | 2025-06-02 22:32:43.321 | in_vehicle | 100 | 12.807674769998 | |
| 72520 | 250602_118321_1036641_1738 | 118321 | (not set) | (not set) | 38.794534923462 | -77.179562730278 | 15.738 | 2025-06-02 22:32:45.197 | in_vehicle | 100 | 10.979284200739 |